< < Back
Terminal Aerodrome Forecast


Current Version              Previous Versions:   1  2  3  4  5  6  7  8  9  

Terminal Aerodrome Forecast

179
FTUS44 KBMX 192300
TAFMGM
TAF
KMGM 192340Z 2000/2024 03004KT P6SM -RA OVC080
     FM200300 02004KT P6SM -RA OVC040
     FM200800 02004KT 5SM -RA BR OVC012
     FM201400 36004KT P6SM OVC020
     FM201700 36004KT P6SM BKN050=

Latest METAR

065
SAUS80 KWBC 200600
MTRMGM
METAR KMGM 200553Z AUTO 00000KT 10SM FEW080 OVC095 08/06 A3015 RMK AO2
RAE48 SLP209 P0003 60014 T00780061 10094 20072 401170022
58007


USA.gov is the U.S. government's official web portal to all federal, state and local government web resources and services.